createdAt,value
2022-08-31T00:00:10.772Z,10.50
2022-08-31T00:02:57.209Z,10.50
2022-08-31T00:05:24.149Z,10.40
2022-08-31T00:07:51.812Z,10.40
2022-08-31T00:10:31.626Z,10.50
2022-08-31T00:13:00.327Z,10.40
2022-08-31T00:15:30.056Z,10.40
2022-08-31T00:17:57.972Z,10.40
2022-08-31T00:20:33.493Z,10.40
2022-08-31T00:23:12.580Z,10.40
2022-08-31T00:25:41.555Z,10.40
2022-08-31T00:28:09.072Z,10.40
2022-08-31T00:30:36.813Z,10.40
2022-08-31T00:33:04.721Z,10.30
2022-08-31T00:35:33.493Z,10.30
2022-08-31T00:38:00.561Z,10.30
2022-08-31T00:40:28.026Z,10.30
2022-08-31T00:42:55.831Z,10.30
2022-08-31T00:45:24.419Z,10.30
2022-08-31T00:47:52.140Z,10.20
2022-08-31T00:50:20.859Z,10.20
2022-08-31T00:52:58.358Z,10.20
2022-08-31T00:55:31.567Z,10.20
2022-08-31T00:58:00.740Z,10.20
2022-08-31T01:00:28.601Z,10.20
2022-08-31T01:02:57.313Z,10.20
2022-08-31T01:05:24.619Z,10.10
2022-08-31T01:07:52.319Z,10.10
2022-08-31T01:10:21.400Z,10.10
2022-08-31T01:12:51.096Z,10.10
2022-08-31T01:15:18.932Z,10.00
2022-08-31T01:17:48.220Z,10.00
2022-08-31T01:20:48.613Z,10.00
2022-08-31T01:23:27.519Z,10.00
2022-08-31T01:25:56.399Z,10.00
2022-08-31T01:28:23.303Z,10.00
2022-08-31T01:30:59.419Z,10.00
2022-08-31T01:33:26.627Z,9.90
2022-08-31T01:35:53.672Z,9.90
2022-08-31T01:38:21.443Z,9.90
2022-08-31T01:40:57.194Z,9.90
2022-08-31T01:43:24.993Z,9.90
2022-08-31T01:45:52.489Z,9.90
2022-08-31T01:48:19.338Z,9.90
2022-08-31T01:50:46.253Z,9.90
2022-08-31T01:53:13.587Z,9.90
2022-08-31T01:55:41.351Z,9.90
2022-08-31T01:58:08.866Z,9.80
2022-08-31T02:00:36.404Z,9.80
2022-08-31T02:03:05.756Z,9.80
2022-08-31T02:05:34.078Z,9.70
2022-08-31T02:08:01.738Z,9.70
2022-08-31T02:10:28.912Z,9.70
2022-08-31T02:12:57.071Z,9.70
2022-08-31T02:15:24.182Z,9.70
2022-08-31T02:17:52.691Z,9.70
2022-08-31T02:20:20.328Z,9.70
2022-08-31T02:22:48.679Z,9.70
2022-08-31T02:25:16.737Z,9.70
2022-08-31T02:27:45.196Z,9.70
2022-08-31T02:30:15.526Z,9.60
2022-08-31T02:32:42.480Z,9.60
2022-08-31T02:35:10.143Z,9.60
2022-08-31T02:37:37.115Z,9.60
2022-08-31T02:40:09.026Z,9.60
2022-08-31T02:42:52.779Z,9.60
2022-08-31T02:45:21.786Z,9.60
2022-08-31T02:47:49.067Z,9.60
2022-08-31T02:50:16.351Z,9.60
2022-08-31T02:52:46.802Z,9.60
2022-08-31T02:55:13.973Z,9.60
2022-08-31T02:57:40.889Z,9.50
2022-08-31T03:00:09.804Z,9.50
2022-08-31T03:02:36.965Z,9.50
2022-08-31T03:05:08.247Z,9.50
2022-08-31T03:07:35.629Z,9.50
2022-08-31T03:10:03.184Z,9.40
2022-08-31T03:12:29.982Z,9.40
2022-08-31T03:14:56.841Z,9.40
2022-08-31T03:17:23.678Z,9.40
2022-08-31T03:19:50.673Z,9.40
2022-08-31T03:22:17.474Z,9.40
2022-08-31T03:24:46.843Z,9.40
2022-08-31T03:27:13.946Z,9.40
2022-08-31T03:29:42.450Z,9.40
2022-08-31T03:32:09.654Z,9.40
2022-08-31T03:34:36.446Z,9.30
2022-08-31T03:37:04.096Z,9.30
2022-08-31T03:39:31.179Z,9.30
2022-08-31T03:41:58.146Z,9.30
2022-08-31T03:44:25.135Z,9.30
2022-08-31T03:46:54.974Z,9.30
2022-08-31T03:49:23.442Z,9.20
2022-08-31T03:51:50.274Z,9.20
2022-08-31T03:54:19.961Z,9.20
2022-08-31T03:56:47.127Z,9.20
2022-08-31T03:59:14.355Z,9.20
2022-08-31T04:01:43.423Z,9.20
2022-08-31T04:04:12.777Z,9.20
2022-08-31T04:06:40.914Z,9.10
2022-08-31T04:09:08.082Z,9.10
2022-08-31T04:11:44.709Z,9.10
2022-08-31T04:14:12.754Z,9.10
2022-08-31T04:16:43.930Z,9.20
2022-08-31T04:19:11.691Z,9.20
2022-08-31T04:21:41.155Z,9.20
2022-08-31T04:24:13.604Z,9.10
2022-08-31T04:26:41.035Z,9.10
2022-08-31T04:29:13.118Z,9.10
2022-08-31T04:31:41.065Z,9.10
2022-08-31T04:34:07.921Z,9.10
2022-08-31T04:36:35.667Z,9.10
2022-08-31T04:39:03.848Z,9.10
2022-08-31T04:41:32.672Z,9.10
2022-08-31T04:44:00.725Z,9.10
2022-08-31T04:46:28.239Z,9.10
2022-08-31T04:48:55.960Z,9.10
2022-08-31T04:51:29.600Z,9.10
2022-08-31T04:53:57.573Z,9.00
2022-08-31T04:56:27.757Z,9.00
2022-08-31T04:59:00.112Z,9.00
2022-08-31T05:01:33.567Z,9.00
2022-08-31T05:04:04.629Z,9.00
2022-08-31T05:06:42.807Z,9.00
2022-08-31T05:09:13.444Z,9.00
2022-08-31T05:11:41.385Z,9.00
2022-08-31T05:14:09.404Z,9.00
2022-08-31T05:16:38.264Z,9.10
2022-08-31T05:19:05.244Z,9.10
2022-08-31T05:21:36.811Z,9.10
2022-08-31T05:24:13.271Z,9.10
2022-08-31T05:26:48.309Z,9.20
2022-08-31T05:29:17.570Z,9.20
2022-08-31T05:31:48.064Z,9.30
2022-08-31T05:34:17.837Z,9.30
2022-08-31T05:36:48.928Z,9.30
2022-08-31T05:39:16.073Z,9.40
2022-08-31T05:41:47.195Z,9.40
2022-08-31T05:51:02.754Z,9.60
2022-08-31T05:54:39.427Z,9.60
2022-08-31T05:57:43.494Z,9.70
2022-08-31T06:00:30.558Z,9.80
2022-08-31T06:03:07.026Z,9.80
2022-08-31T06:06:56.405Z,9.90
2022-08-31T06:09:54.478Z,10.00
2022-08-31T06:24:38.309Z,10.60
2022-08-31T06:27:06.110Z,10.70
2022-08-31T06:29:33.625Z,10.80
2022-08-31T06:32:00.977Z,10.90
2022-08-31T06:34:29.307Z,11.00
2022-08-31T06:36:56.381Z,11.10
2022-08-31T06:39:24.070Z,11.20
2022-08-31T06:41:52.704Z,11.30
2022-08-31T06:44:22.374Z,11.50
2022-08-31T06:46:51.412Z,11.60
2022-08-31T06:49:19.519Z,11.80
2022-08-31T06:51:46.412Z,11.90
2022-08-31T06:54:29.450Z,12.00
2022-08-31T06:56:58.896Z,12.20
2022-08-31T06:59:29.093Z,12.30
2022-08-31T07:01:58.716Z,12.40
2022-08-31T07:04:26.569Z,12.60
2022-08-31T07:06:53.585Z,12.80
2022-08-31T07:09:20.471Z,13.00
2022-08-31T07:11:52.259Z,13.10
2022-08-31T07:14:24.707Z,13.30
2022-08-31T07:16:54.334Z,13.40
2022-08-31T07:19:22.070Z,13.60
2022-08-31T07:21:54.942Z,13.80
2022-08-31T07:24:25.198Z,14.00
2022-08-31T07:26:55.016Z,14.30
2022-08-31T07:29:23.113Z,14.50
2022-08-31T07:31:50.552Z,14.70
2022-08-31T07:34:25.757Z,14.80
2022-08-31T07:37:12.974Z,15.00
2022-08-31T07:40:03.393Z,15.20
2022-08-31T07:42:36.773Z,15.50
2022-08-31T07:45:11.674Z,15.70
2022-08-31T07:47:45.287Z,15.90
2022-08-31T07:50:13.917Z,16.20
2022-08-31T07:52:51.831Z,16.40
2022-08-31T07:55:19.684Z,16.80
2022-08-31T07:57:46.853Z,17.10
2022-08-31T08:00:21.388Z,17.40
2022-08-31T08:02:52.699Z,17.50
2022-08-31T08:05:25.130Z,17.40
2022-08-31T08:07:58.418Z,17.40
2022-08-31T08:10:30.052Z,17.50
2022-08-31T08:13:04.218Z,17.80
2022-08-31T08:15:35.765Z,18.00
2022-08-31T08:18:06.645Z,18.10
2022-08-31T08:20:37.249Z,18.30
2022-08-31T08:23:14.511Z,18.50
2022-08-31T08:25:46.390Z,18.70
2022-08-31T08:31:05.608Z,19.00
2022-08-31T08:33:34.587Z,19.10
2022-08-31T08:36:03.324Z,19.20
2022-08-31T08:38:31.141Z,19.20
2022-08-31T08:41:04.742Z,19.30
2022-08-31T08:43:37.649Z,19.30
2022-08-31T08:46:25.229Z,19.40
2022-08-31T08:48:56.066Z,19.40
2022-08-31T08:51:25.157Z,19.60
2022-08-31T08:53:55.720Z,19.60
2022-08-31T08:56:33.514Z,19.70
2022-08-31T08:59:05.410Z,19.90
2022-08-31T09:01:37.486Z,19.80
2022-08-31T09:04:14.118Z,19.90
2022-08-31T09:06:54.352Z,20.00
2022-08-31T09:09:40.758Z,20.20
2022-08-31T09:12:46.389Z,20.30
2022-08-31T09:15:41.910Z,20.40
2022-08-31T09:18:39.854Z,20.50
2022-08-31T09:21:20.721Z,20.60
2022-08-31T09:24:21.906Z,20.60
2022-08-31T09:27:18.212Z,20.60
2022-08-31T09:29:55.756Z,20.70
2022-08-31T09:32:31.952Z,20.60
2022-08-31T09:35:22.004Z,20.40
2022-08-31T09:38:02.032Z,20.20
2022-08-31T09:40:39.140Z,20.10
2022-08-31T09:43:17.888Z,20.10
2022-08-31T09:46:19.922Z,20.50
2022-08-31T09:48:51.977Z,20.50
2022-08-31T09:51:29.848Z,20.30
2022-08-31T09:54:47.178Z,20.70
2022-08-31T09:57:14.479Z,21.20
2022-08-31T09:59:47.116Z,21.60
2022-08-31T10:02:28.620Z,21.90
2022-08-31T10:05:04.280Z,22.10
2022-08-31T10:07:46.077Z,22.20
2022-08-31T10:10:31.309Z,22.30
2022-08-31T10:13:22.079Z,21.90
2022-08-31T10:16:06.780Z,21.80
2022-08-31T10:18:41.944Z,21.90
2022-08-31T10:21:21.349Z,21.50
2022-08-31T10:24:10.901Z,21.50
2022-08-31T10:26:47.032Z,21.20
2022-08-31T10:29:38.671Z,21.10
2022-08-31T10:32:18.344Z,21.30
2022-08-31T10:35:06.243Z,21.60
2022-08-31T10:37:49.814Z,21.90
2022-08-31T10:40:21.584Z,22.30
2022-08-31T10:42:59.277Z,22.30
2022-08-31T10:45:31.704Z,21.90
2022-08-31T10:47:59.413Z,21.70
2022-08-31T10:50:45.922Z,22.00
2022-08-31T10:53:40.104Z,22.30
2022-08-31T10:56:17.126Z,22.60
2022-08-31T10:59:08.478Z,22.70
2022-08-31T11:02:09.021Z,22.60
2022-08-31T11:05:18.848Z,22.70
2022-08-31T11:08:17.560Z,22.80
2022-08-31T11:10:47.284Z,23.00
2022-08-31T11:13:49.461Z,23.10
2022-08-31T11:16:35.220Z,23.00
2022-08-31T11:19:09.408Z,22.80
2022-08-31T11:22:04.337Z,23.00
2022-08-31T11:24:51.204Z,23.10
2022-08-31T11:27:44.330Z,23.30
2022-08-31T11:30:24.555Z,23.50
2022-08-31T11:32:56.988Z,23.70
2022-08-31T11:36:07.697Z,23.60
2022-08-31T11:38:43.199Z,23.30
2022-08-31T11:41:31.732Z,22.60
2022-08-31T11:44:11.825Z,22.30
2022-08-31T11:46:40.047Z,22.00
2022-08-31T11:49:10.835Z,21.90
2022-08-31T11:51:46.140Z,21.90
2022-08-31T11:54:41.944Z,21.80
2022-08-31T11:57:15.447Z,22.10
2022-08-31T11:59:46.352Z,22.40
2022-08-31T12:02:19.421Z,22.30
2022-08-31T12:04:47.446Z,22.20
2022-08-31T12:07:28.462Z,22.30
2022-08-31T12:10:22.035Z,22.10
2022-08-31T12:12:51.588Z,21.90
2022-08-31T12:15:21.353Z,21.60
2022-08-31T12:18:10.546Z,21.30
2022-08-31T12:21:02.252Z,21.10
2022-08-31T12:23:56.983Z,20.90
2022-08-31T12:26:56.302Z,20.70
2022-08-31T12:29:27.931Z,20.60
2022-08-31T12:32:27.111Z,20.60
2022-08-31T12:35:12.453Z,20.70
2022-08-31T12:37:40.357Z,20.80
2022-08-31T12:40:19.904Z,20.80
2022-08-31T12:43:37.807Z,20.70
2022-08-31T12:46:04.704Z,20.70
2022-08-31T12:48:46.708Z,20.70
2022-08-31T12:51:42.138Z,20.60
2022-08-31T12:54:20.901Z,20.60
2022-08-31T12:57:07.988Z,20.60
2022-08-31T13:00:00.444Z,20.70
2022-08-31T13:02:30.820Z,20.80
2022-08-31T13:04:57.717Z,21.10
2022-08-31T13:07:31.434Z,21.40
2022-08-31T13:10:13.820Z,21.70
2022-08-31T13:12:55.165Z,21.80
2022-08-31T13:15:27.541Z,21.70
2022-08-31T13:17:55.120Z,21.50
2022-08-31T13:20:32.915Z,21.30
2022-08-31T13:23:02.741Z,21.20
2022-08-31T13:25:37.544Z,21.10
2022-08-31T13:28:14.262Z,21.30
2022-08-31T13:30:43.575Z,21.50
2022-08-31T13:33:33.304Z,21.70
2022-08-31T13:36:33.170Z,21.90
2022-08-31T13:39:12.368Z,22.10
2022-08-31T13:41:57.020Z,22.10
2022-08-31T13:44:32.992Z,22.10
2022-08-31T13:47:03.834Z,21.90
2022-08-31T13:49:37.737Z,21.60
2022-08-31T13:52:09.751Z,21.20
2022-08-31T13:54:36.728Z,20.80
2022-08-31T13:57:17.969Z,20.50
2022-08-31T13:59:48.229Z,20.30
2022-08-31T14:02:22.704Z,20.10
2022-08-31T14:04:57.542Z,20.20
2022-08-31T14:07:33.503Z,20.40
2022-08-31T14:10:22.234Z,20.60
2022-08-31T14:13:04.382Z,20.80
2022-08-31T14:15:41.027Z,20.90
2022-08-31T14:18:42.563Z,21.10
2022-08-31T14:21:24.191Z,21.10
2022-08-31T14:24:03.021Z,20.90
2022-08-31T14:26:36.869Z,20.60
2022-08-31T14:29:12.403Z,20.30
2022-08-31T14:31:52.126Z,20.10
2022-08-31T14:34:30.475Z,20.00
2022-08-31T14:37:19.776Z,19.90
2022-08-31T14:39:53.771Z,20.00
2022-08-31T14:42:26.560Z,20.10
2022-08-31T14:45:21.119Z,20.20
2022-08-31T14:47:52.531Z,20.30
2022-08-31T14:50:25.355Z,20.30
2022-08-31T14:52:53.055Z,20.30
2022-08-31T14:55:21.482Z,20.40
2022-08-31T14:57:55.509Z,20.40
2022-08-31T15:00:23.345Z,20.40
2022-08-31T15:02:53.464Z,20.30
2022-08-31T15:05:24.486Z,20.30
2022-08-31T15:07:53.919Z,20.30
2022-08-31T15:10:24.216Z,20.40
2022-08-31T15:12:51.697Z,20.40
2022-08-31T15:15:20.462Z,20.30
2022-08-31T15:17:50.329Z,20.30
2022-08-31T15:20:19.725Z,20.20
2022-08-31T15:22:47.835Z,20.10
2022-08-31T15:25:15.387Z,20.10
2022-08-31T15:27:44.196Z,20.00
2022-08-31T15:30:18.951Z,20.00
2022-08-31T15:32:48.111Z,20.00
2022-08-31T15:35:23.510Z,20.00
2022-08-31T15:37:56.297Z,19.90
2022-08-31T15:40:23.874Z,19.90
2022-08-31T15:42:53.930Z,19.90
2022-08-31T15:45:21.993Z,19.90
2022-08-31T15:48:07.597Z,19.90
2022-08-31T15:50:35.915Z,19.90
2022-08-31T15:53:09.394Z,19.90
2022-08-31T15:55:40.624Z,19.80
2022-08-31T15:58:09.347Z,19.80
2022-08-31T16:00:37.382Z,19.70
2022-08-31T16:03:06.219Z,19.70
2022-08-31T16:05:39.034Z,19.60
2022-08-31T16:08:11.499Z,19.50
2022-08-31T16:10:43.249Z,19.40
2022-08-31T16:13:10.425Z,19.30
2022-08-31T16:15:38.883Z,19.20
2022-08-31T16:18:06.233Z,19.20
2022-08-31T16:20:34.589Z,19.10
2022-08-31T16:23:05.033Z,19.10
2022-08-31T16:25:47.654Z,19.00
2022-08-31T16:28:17.357Z,19.00
2022-08-31T16:30:45.237Z,18.90
2022-08-31T16:33:12.342Z,18.90
2022-08-31T16:35:40.330Z,18.80
2022-08-31T16:38:07.391Z,18.80
2022-08-31T16:40:35.710Z,18.70
2022-08-31T16:43:03.223Z,18.70
2022-08-31T16:45:30.311Z,18.60
2022-08-31T16:48:22.150Z,18.50
2022-08-31T16:50:49.118Z,18.50
2022-08-31T16:53:17.946Z,18.50
2022-08-31T16:55:47.322Z,18.40
2022-08-31T16:58:34.512Z,18.40
2022-08-31T17:01:12.645Z,18.40
2022-08-31T17:04:04.717Z,18.30
2022-08-31T17:06:36.404Z,18.30
2022-08-31T17:09:16.390Z,18.30
2022-08-31T17:11:50.375Z,18.20
2022-08-31T17:14:38.385Z,18.10
2022-08-31T17:17:09.184Z,18.10
2022-08-31T17:19:44.479Z,18.00
2022-08-31T17:22:18.161Z,18.00
2022-08-31T17:24:51.135Z,17.90
2022-08-31T17:27:20.286Z,17.90
2022-08-31T17:29:51.184Z,17.80
2022-08-31T17:32:23.691Z,17.80
2022-08-31T17:34:51.751Z,17.80
2022-08-31T17:37:28.354Z,17.70
2022-08-31T17:40:07.803Z,17.70
2022-08-31T17:42:35.695Z,17.70
2022-08-31T17:45:05.917Z,17.60
2022-08-31T17:47:33.489Z,17.50
2022-08-31T17:50:00.588Z,17.40
2022-08-31T17:55:19.276Z,17.10
2022-08-31T17:57:46.468Z,16.90
2022-08-31T18:00:16.749Z,16.80
2022-08-31T18:03:11.055Z,16.70
2022-08-31T18:06:05.769Z,16.50
2022-08-31T18:08:40.413Z,16.40
2022-08-31T18:11:09.780Z,16.30
2022-08-31T18:13:37.359Z,16.10
2022-08-31T18:16:15.921Z,16.00
2022-08-31T18:22:52.716Z,15.80
2022-08-31T18:25:22.557Z,15.60
2022-08-31T18:27:49.573Z,15.50
2022-08-31T18:30:16.764Z,15.40
2022-08-31T18:32:47.458Z,15.30
2022-08-31T18:35:16.427Z,15.20
2022-08-31T18:37:43.336Z,15.20
2022-08-31T18:40:29.308Z,15.10
2022-08-31T18:43:15.542Z,15.00
2022-08-31T18:45:54.969Z,14.90
2022-08-31T18:48:35.385Z,14.80
2022-08-31T18:51:05.314Z,14.70
2022-08-31T18:53:34.492Z,14.60
2022-08-31T18:56:14.187Z,14.50
2022-08-31T18:58:42.279Z,14.40
2022-08-31T19:01:12.491Z,14.40
2022-08-31T19:03:45.046Z,14.30
2022-08-31T19:06:27.167Z,14.20
2022-08-31T19:08:58.107Z,14.20
2022-08-31T19:11:36.052Z,14.10
2022-08-31T19:14:09.713Z,14.10
2022-08-31T19:16:36.852Z,14.00
2022-08-31T19:19:14.962Z,14.00
2022-08-31T19:21:43.514Z,14.00
2022-08-31T19:24:15.804Z,13.90
2022-08-31T19:26:58.285Z,13.90
2022-08-31T19:29:28.961Z,13.90
2022-08-31T19:31:58.384Z,13.80
2022-08-31T19:34:54.910Z,13.80
2022-08-31T19:37:22.931Z,13.70
2022-08-31T19:39:50.109Z,13.70
2022-08-31T19:42:17.469Z,13.60
2022-08-31T19:47:38.724Z,13.50
2022-08-31T19:50:13.544Z,13.40
2022-08-31T19:52:41.313Z,13.40
2022-08-31T19:55:09.367Z,13.30
2022-08-31T19:57:36.837Z,13.30
2022-08-31T20:00:05.971Z,13.20
2022-08-31T20:02:33.390Z,13.20
2022-08-31T20:05:00.293Z,13.10
2022-08-31T20:07:38.460Z,13.10
2022-08-31T20:10:07.425Z,13.10
2022-08-31T20:12:35.408Z,13.10
2022-08-31T20:15:03.507Z,13.00
2022-08-31T20:17:30.361Z,13.00
2022-08-31T20:19:59.943Z,12.90
2022-08-31T20:22:28.106Z,12.90
2022-08-31T20:24:58.326Z,12.80
2022-08-31T20:27:27.240Z,12.80
2022-08-31T20:29:54.619Z,12.80
2022-08-31T20:32:29.201Z,12.80
2022-08-31T20:34:57.014Z,12.80
2022-08-31T20:37:30.285Z,12.70
2022-08-31T20:39:57.206Z,12.70
2022-08-31T20:42:25.658Z,12.70
2022-08-31T20:44:55.246Z,12.60
2022-08-31T20:47:40.676Z,12.50
2022-08-31T20:50:14.158Z,12.50
2022-08-31T20:52:41.279Z,12.50
2022-08-31T20:55:08.903Z,12.40
2022-08-31T20:57:42.033Z,12.40
2022-08-31T21:00:10.575Z,12.30
2022-08-31T21:02:39.768Z,12.30
2022-08-31T21:05:36.451Z,12.20
2022-08-31T21:07:57.315Z,12.20
2022-08-31T21:10:36.339Z,12.10
2022-08-31T21:13:05.530Z,12.10
2022-08-31T21:15:32.751Z,12.10
2022-08-31T21:17:59.833Z,12.00
2022-08-31T21:20:26.795Z,12.00
2022-08-31T21:22:53.950Z,12.00
2022-08-31T21:25:20.988Z,11.90
2022-08-31T21:27:49.936Z,11.90
2022-08-31T21:30:17.299Z,11.90
2022-08-31T21:32:44.564Z,11.90
2022-08-31T21:35:12.556Z,11.90
2022-08-31T21:37:40.326Z,11.80
2022-08-31T21:40:07.739Z,11.80
2022-08-31T21:42:34.984Z,11.80
2022-08-31T21:45:06.511Z,11.70
2022-08-31T21:47:34.434Z,11.70
2022-08-31T21:50:01.233Z,11.70
2022-08-31T21:52:28.189Z,11.60
2022-08-31T21:54:55.118Z,11.60
2022-08-31T21:57:22.350Z,11.60
2022-08-31T21:59:50.263Z,11.50
2022-08-31T22:02:17.160Z,11.50
2022-08-31T22:04:44.624Z,11.50
2022-08-31T22:07:13.493Z,11.40
2022-08-31T22:09:40.545Z,11.40
2022-08-31T22:12:08.631Z,11.40
2022-08-31T22:14:38.435Z,11.40
2022-08-31T22:17:07.065Z,11.30
2022-08-31T22:19:42.401Z,11.30
2022-08-31T22:22:12.477Z,11.30
2022-08-31T22:24:40.874Z,11.20
2022-08-31T22:27:09.886Z,11.20
2022-08-31T22:29:37.731Z,11.20
2022-08-31T22:32:11.931Z,11.20
2022-08-31T22:34:41.973Z,11.20
2022-08-31T22:37:09.196Z,11.10
2022-08-31T22:39:36.435Z,11.10
2022-08-31T22:42:04.036Z,11.10
2022-08-31T22:44:34.211Z,11.10
2022-08-31T22:47:01.600Z,11.10
2022-08-31T22:49:28.531Z,11.00
2022-08-31T22:51:55.649Z,11.00
2022-08-31T22:54:23.606Z,10.90
2022-08-31T22:56:50.607Z,10.90
2022-08-31T22:59:24.712Z,10.90
2022-08-31T23:01:55.071Z,10.90
2022-08-31T23:04:24.489Z,10.90
2022-08-31T23:06:52.052Z,10.90
2022-08-31T23:09:21.242Z,10.80
2022-08-31T23:11:51.439Z,10.80
2022-08-31T23:14:21.049Z,10.80
2022-08-31T23:16:57.147Z,10.80
2022-08-31T23:19:28.485Z,10.80
2022-08-31T23:21:57.581Z,10.80
2022-08-31T23:24:24.581Z,10.80
2022-08-31T23:26:53.002Z,10.80
2022-08-31T23:29:21.685Z,10.70
2022-08-31T23:31:48.796Z,10.70
2022-08-31T23:34:16.770Z,10.70
2022-08-31T23:36:49.251Z,10.70
2022-08-31T23:39:18.275Z,10.60
2022-08-31T23:41:46.246Z,10.60
2022-08-31T23:44:13.356Z,10.50
2022-08-31T23:46:42.895Z,10.60
2022-08-31T23:49:11.552Z,10.60
2022-08-31T23:51:38.707Z,10.50
2022-08-31T23:54:07.864Z,10.60
2022-08-31T23:56:40.840Z,10.50
2022-08-31T23:59:19.841Z,10.50
